sensor_id;sensor_type;location;lat;lon;timestamp;P1;durP1;ratioP1;P2;durP2;ratioP2
28762;SDS011;15918;51.270;6.522;2023-08-20T00:00:19;8.95;;;6.35;;
28762;SDS011;15918;51.270;6.522;2023-08-20T00:02:46;9.35;;;6.45;;
28762;SDS011;15918;51.270;6.522;2023-08-20T00:05:14;7.10;;;6.07;;
28762;SDS011;15918;51.270;6.522;2023-08-20T00:07:40;8.45;;;6.20;;
28762;SDS011;15918;51.270;6.522;2023-08-20T00:10:06;7.80;;;6.70;;
28762;SDS011;15918;51.270;6.522;2023-08-20T00:12:32;8.68;;;6.32;;
28762;SDS011;15918;51.270;6.522;2023-08-20T00:14:59;7.55;;;6.55;;
28762;SDS011;15918;51.270;6.522;2023-08-20T00:17:33;7.18;;;6.07;;
28762;SDS011;15918;51.270;6.522;2023-08-20T00:20:00;8.10;;;6.47;;
28762;SDS011;15918;51.270;6.522;2023-08-20T00:22:26;8.38;;;6.10;;
28762;SDS011;15918;51.270;6.522;2023-08-20T00:24:52;6.88;;;5.75;;
28762;SDS011;15918;51.270;6.522;2023-08-20T00:27:19;10.20;;;7.07;;
28762;SDS011;15918;51.270;6.522;2023-08-20T00:29:45;8.30;;;6.13;;
28762;SDS011;15918;51.270;6.522;2023-08-20T00:32:11;7.53;;;5.70;;
28762;SDS011;15918;51.270;6.522;2023-08-20T00:34:37;10.23;;;6.38;;
28762;SDS011;15918;51.270;6.522;2023-08-20T00:37:02;10.15;;;6.75;;
28762;SDS011;15918;51.270;6.522;2023-08-20T00:39:31;7.75;;;5.55;;
28762;SDS011;15918;51.270;6.522;2023-08-20T00:41:57;6.65;;;5.80;;
28762;SDS011;15918;51.270;6.522;2023-08-20T00:44:23;8.50;;;5.80;;
28762;SDS011;15918;51.270;6.522;2023-08-20T00:46:48;9.18;;;6.28;;
28762;SDS011;15918;51.270;6.522;2023-08-20T00:49:15;10.23;;;6.55;;
28762;SDS011;15918;51.270;6.522;2023-08-20T00:51:41;6.60;;;6.00;;
28762;SDS011;15918;51.270;6.522;2023-08-20T00:54:07;6.30;;;5.65;;
28762;SDS011;15918;51.270;6.522;2023-08-20T00:56:34;9.68;;;6.20;;
28762;SDS011;15918;51.270;6.522;2023-08-20T00:59:00;8.60;;;6.70;;
28762;SDS011;15918;51.270;6.522;2023-08-20T01:01:26;7.03;;;5.75;;
28762;SDS011;15918;51.270;6.522;2023-08-20T01:03:51;7.45;;;6.28;;
28762;SDS011;15918;51.270;6.522;2023-08-20T01:12:14;9.70;;;6.55;;
28762;SDS011;15918;51.270;6.522;2023-08-20T01:14:42;9.23;;;6.90;;
28762;SDS011;15918;51.270;6.522;2023-08-20T01:17:07;7.30;;;6.25;;
28762;SDS011;15918;51.270;6.522;2023-08-20T01:19:33;7.88;;;7.07;;
28762;SDS011;15918;51.270;6.522;2023-08-20T01:24:38;9.63;;;7.50;;
28762;SDS011;15918;51.270;6.522;2023-08-20T01:30:22;8.50;;;7.70;;
28762;SDS011;15918;51.270;6.522;2023-08-20T01:32:50;8.93;;;7.45;;
28762;SDS011;15918;51.270;6.522;2023-08-20T01:35:18;11.20;;;8.20;;
28762;SDS011;15918;51.270;6.522;2023-08-20T01:37:44;9.88;;;8.02;;
28762;SDS011;15918;51.270;6.522;2023-08-20T01:40:09;8.60;;;7.80;;
28762;SDS011;15918;51.270;6.522;2023-08-20T01:42:39;8.40;;;7.63;;
28762;SDS011;15918;51.270;6.522;2023-08-20T01:45:05;8.95;;;8.02;;
28762;SDS011;15918;51.270;6.522;2023-08-20T01:47:35;10.00;;;9.02;;
28762;SDS011;15918;51.270;6.522;2023-08-20T01:50:00;9.02;;;7.90;;
28762;SDS011;15918;51.270;6.522;2023-08-20T01:52:26;11.63;;;8.40;;
28762;SDS011;15918;51.270;6.522;2023-08-20T01:54:52;13.13;;;8.80;;
28762;SDS011;15918;51.270;6.522;2023-08-20T01:57:18;11.70;;;8.60;;
28762;SDS011;15918;51.270;6.522;2023-08-20T01:59:44;11.43;;;9.25;;
28762;SDS011;15918;51.270;6.522;2023-08-20T02:02:09;11.68;;;9.07;;
28762;SDS011;15918;51.270;6.522;2023-08-20T02:04:35;12.13;;;9.70;;
28762;SDS011;15918;51.270;6.522;2023-08-20T02:07:01;11.45;;;10.13;;
28762;SDS011;15918;51.270;6.522;2023-08-20T02:09:26;13.82;;;9.18;;
28762;SDS011;15918;51.270;6.522;2023-08-20T02:11:52;13.75;;;9.73;;
28762;SDS011;15918;51.270;6.522;2023-08-20T02:14:17;12.27;;;10.60;;
28762;SDS011;15918;51.270;6.522;2023-08-20T02:16:43;12.82;;;10.70;;
28762;SDS011;15918;51.270;6.522;2023-08-20T02:19:11;11.70;;;10.50;;
28762;SDS011;15918;51.270;6.522;2023-08-20T02:21:36;12.75;;;10.02;;
28762;SDS011;15918;51.270;6.522;2023-08-20T02:24:02;12.32;;;11.02;;
28762;SDS011;15918;51.270;6.522;2023-08-20T02:26:29;12.82;;;11.13;;
28762;SDS011;15918;51.270;6.522;2023-08-20T02:28:54;13.77;;;11.00;;
28762;SDS011;15918;51.270;6.522;2023-08-20T02:31:20;12.63;;;11.38;;
28762;SDS011;15918;51.270;6.522;2023-08-20T02:33:45;16.75;;;11.88;;
28762;SDS011;15918;51.270;6.522;2023-08-20T02:36:12;13.10;;;11.18;;
28762;SDS011;15918;51.270;6.522;2023-08-20T02:38:37;12.45;;;11.20;;
28762;SDS011;15918;51.270;6.522;2023-08-20T02:41:03;15.02;;;11.55;;
28762;SDS011;15918;51.270;6.522;2023-08-20T02:43:29;12.35;;;11.05;;
28762;SDS011;15918;51.270;6.522;2023-08-20T02:45:54;17.40;;;12.05;;
28762;SDS011;15918;51.270;6.522;2023-08-20T02:48:20;12.95;;;11.63;;
28762;SDS011;15918;51.270;6.522;2023-08-20T02:50:46;13.95;;;12.05;;
28762;SDS011;15918;51.270;6.522;2023-08-20T02:53:12;13.23;;;11.80;;
28762;SDS011;15918;51.270;6.522;2023-08-20T02:55:37;13.13;;;11.48;;
28762;SDS011;15918;51.270;6.522;2023-08-20T02:58:03;14.15;;;10.98;;
28762;SDS011;15918;51.270;6.522;2023-08-20T03:00:29;13.45;;;10.88;;
28762;SDS011;15918;51.270;6.522;2023-08-20T03:02:55;14.80;;;11.48;;
28762;SDS011;15918;51.270;6.522;2023-08-20T03:05:21;12.43;;;11.20;;
28762;SDS011;15918;51.270;6.522;2023-08-20T03:07:47;14.20;;;11.27;;
28762;SDS011;15918;51.270;6.522;2023-08-20T03:10:14;12.68;;;11.32;;
28762;SDS011;15918;51.270;6.522;2023-08-20T03:12:39;17.58;;;12.18;;
28762;SDS011;15918;51.270;6.522;2023-08-20T03:15:06;14.48;;;11.43;;
28762;SDS011;15918;51.270;6.522;2023-08-20T03:17:32;12.55;;;10.85;;
28762;SDS011;15918;51.270;6.522;2023-08-20T03:19:58;16.05;;;12.00;;
28762;SDS011;15918;51.270;6.522;2023-08-20T03:22:25;13.07;;;11.73;;
28762;SDS011;15918;51.270;6.522;2023-08-20T03:24:52;14.02;;;11.93;;
28762;SDS011;15918;51.270;6.522;2023-08-20T03:27:18;12.52;;;11.25;;
28762;SDS011;15918;51.270;6.522;2023-08-20T03:29:44;14.10;;;12.07;;
28762;SDS011;15918;51.270;6.522;2023-08-20T03:32:10;12.02;;;10.75;;
28762;SDS011;15918;51.270;6.522;2023-08-20T03:34:36;12.50;;;11.30;;
28762;SDS011;15918;51.270;6.522;2023-08-20T03:37:02;16.30;;;11.90;;
28762;SDS011;15918;51.270;6.522;2023-08-20T03:39:28;14.85;;;12.05;;
28762;SDS011;15918;51.270;6.522;2023-08-20T03:41:54;13.45;;;12.15;;
28762;SDS011;15918;51.270;6.522;2023-08-20T03:44:20;13.18;;;11.98;;
28762;SDS011;15918;51.270;6.522;2023-08-20T03:46:46;15.48;;;12.68;;
28762;SDS011;15918;51.270;6.522;2023-08-20T03:49:11;14.48;;;12.35;;
28762;SDS011;15918;51.270;6.522;2023-08-20T03:51:37;14.93;;;12.18;;
28762;SDS011;15918;51.270;6.522;2023-08-20T03:54:02;13.75;;;12.25;;
28762;SDS011;15918;51.270;6.522;2023-08-20T03:56:28;14.77;;;11.68;;
28762;SDS011;15918;51.270;6.522;2023-08-20T03:58:54;16.77;;;12.65;;
28762;SDS011;15918;51.270;6.522;2023-08-20T04:01:20;16.48;;;13.93;;
28762;SDS011;15918;51.270;6.522;2023-08-20T04:03:47;15.32;;;13.38;;
28762;SDS011;15918;51.270;6.522;2023-08-20T04:06:13;16.75;;;13.55;;
28762;SDS011;15918;51.270;6.522;2023-08-20T04:08:39;15.23;;;13.35;;
28762;SDS011;15918;51.270;6.522;2023-08-20T04:11:05;14.60;;;12.68;;
28762;SDS011;15918;51.270;6.522;2023-08-20T04:13:31;21.67;;;13.68;;
28762;SDS011;15918;51.270;6.522;2023-08-20T04:15:57;14.38;;;12.85;;
28762;SDS011;15918;51.270;6.522;2023-08-20T04:18:23;13.85;;;12.43;;
28762;SDS011;15918;51.270;6.522;2023-08-20T04:20:52;15.50;;;12.10;;
28762;SDS011;15918;51.270;6.522;2023-08-20T04:23:18;13.85;;;12.45;;
28762;SDS011;15918;51.270;6.522;2023-08-20T04:25:44;16.27;;;13.35;;
28762;SDS011;15918;51.270;6.522;2023-08-20T04:28:11;13.77;;;12.32;;
28762;SDS011;15918;51.270;6.522;2023-08-20T04:30:37;14.85;;;12.60;;
28762;SDS011;15918;51.270;6.522;2023-08-20T04:33:03;18.77;;;13.02;;
28762;SDS011;15918;51.270;6.522;2023-08-20T04:35:29;16.20;;;13.30;;
28762;SDS011;15918;51.270;6.522;2023-08-20T04:37:55;14.27;;;12.93;;
28762;SDS011;15918;51.270;6.522;2023-08-20T04:40:20;15.90;;;13.48;;
28762;SDS011;15918;51.270;6.522;2023-08-20T04:42:46;13.82;;;12.43;;
28762;SDS011;15918;51.270;6.522;2023-08-20T04:45:11;13.60;;;12.05;;
28762;SDS011;15918;51.270;6.522;2023-08-20T04:47:37;14.23;;;12.63;;
28762;SDS011;15918;51.270;6.522;2023-08-20T04:50:03;15.10;;;12.63;;
28762;SDS011;15918;51.270;6.522;2023-08-20T04:52:32;13.27;;;11.88;;
28762;SDS011;15918;51.270;6.522;2023-08-20T04:54:58;16.42;;;12.60;;
28762;SDS011;15918;51.270;6.522;2023-08-20T04:57:23;16.08;;;14.38;;
28762;SDS011;15918;51.270;6.522;2023-08-20T04:59:49;15.80;;;12.68;;
28762;SDS011;15918;51.270;6.522;2023-08-20T05:02:15;15.05;;;12.50;;
28762;SDS011;15918;51.270;6.522;2023-08-20T05:04:40;15.18;;;13.35;;
28762;SDS011;15918;51.270;6.522;2023-08-20T05:07:06;14.32;;;12.88;;
28762;SDS011;15918;51.270;6.522;2023-08-20T05:09:32;14.70;;;13.18;;
28762;SDS011;15918;51.270;6.522;2023-08-20T05:11:58;18.75;;;13.68;;
28762;SDS011;15918;51.270;6.522;2023-08-20T05:14:24;15.85;;;13.60;;
28762;SDS011;15918;51.270;6.522;2023-08-20T05:16:49;14.05;;;12.30;;
28762;SDS011;15918;51.270;6.522;2023-08-20T05:19:15;15.57;;;13.20;;
28762;SDS011;15918;51.270;6.522;2023-08-20T05:21:40;15.00;;;13.02;;
28762;SDS011;15918;51.270;6.522;2023-08-20T05:24:06;16.65;;;13.20;;
28762;SDS011;15918;51.270;6.522;2023-08-20T05:26:32;16.20;;;12.48;;
28762;SDS011;15918;51.270;6.522;2023-08-20T05:28:57;17.17;;;12.88;;
28762;SDS011;15918;51.270;6.522;2023-08-20T05:31:23;15.65;;;12.77;;
28762;SDS011;15918;51.270;6.522;2023-08-20T05:33:48;16.77;;;12.95;;
28762;SDS011;15918;51.270;6.522;2023-08-20T05:36:14;15.30;;;13.10;;
28762;SDS011;15918;51.270;6.522;2023-08-20T05:38:39;15.40;;;13.40;;
28762;SDS011;15918;51.270;6.522;2023-08-20T05:41:07;17.38;;;13.75;;
28762;SDS011;15918;51.270;6.522;2023-08-20T05:43:33;15.15;;;13.55;;
28762;SDS011;15918;51.270;6.522;2023-08-20T05:46:01;15.65;;;13.45;;
28762;SDS011;15918;51.270;6.522;2023-08-20T05:48:27;15.23;;;13.73;;
28762;SDS011;15918;51.270;6.522;2023-08-20T05:50:53;16.17;;;14.48;;
28762;SDS011;15918;51.270;6.522;2023-08-20T05:53:18;15.25;;;13.65;;
28762;SDS011;15918;51.270;6.522;2023-08-20T05:55:44;15.20;;;12.82;;
28762;SDS011;15918;51.270;6.522;2023-08-20T05:58:10;13.98;;;12.57;;
28762;SDS011;15918;51.270;6.522;2023-08-20T06:00:36;15.52;;;13.88;;
28762;SDS011;15918;51.270;6.522;2023-08-20T06:03:01;15.40;;;13.90;;
28762;SDS011;15918;51.270;6.522;2023-08-20T06:05:27;21.35;;;13.50;;
28762;SDS011;15918;51.270;6.522;2023-08-20T06:07:53;16.13;;;13.35;;
28762;SDS011;15918;51.270;6.522;2023-08-20T06:10:18;15.82;;;12.23;;
28762;SDS011;15918;51.270;6.522;2023-08-20T06:12:44;15.18;;;12.13;;
28762;SDS011;15918;51.270;6.522;2023-08-20T06:15:09;14.60;;;11.82;;
28762;SDS011;15918;51.270;6.522;2023-08-20T06:17:35;16.73;;;12.07;;
28762;SDS011;15918;51.270;6.522;2023-08-20T06:20:01;12.57;;;11.25;;
28762;SDS011;15918;51.270;6.522;2023-08-20T06:22:30;13.73;;;12.23;;
28762;SDS011;15918;51.270;6.522;2023-08-20T06:24:56;16.75;;;13.52;;
28762;SDS011;15918;51.270;6.522;2023-08-20T06:27:23;14.82;;;12.77;;
28762;SDS011;15918;51.270;6.522;2023-08-20T06:29:48;14.55;;;13.02;;
28762;SDS011;15918;51.270;6.522;2023-08-20T06:32:14;13.77;;;12.27;;
28762;SDS011;15918;51.270;6.522;2023-08-20T06:34:39;16.73;;;12.43;;
28762;SDS011;15918;51.270;6.522;2023-08-20T06:37:05;16.92;;;12.40;;
28762;SDS011;15918;51.270;6.522;2023-08-20T06:39:30;16.42;;;12.23;;
28762;SDS011;15918;51.270;6.522;2023-08-20T06:41:56;13.57;;;11.88;;
28762;SDS011;15918;51.270;6.522;2023-08-20T06:44:22;14.20;;;11.85;;
28762;SDS011;15918;51.270;6.522;2023-08-20T06:46:47;14.65;;;12.05;;
28762;SDS011;15918;51.270;6.522;2023-08-20T06:49:13;15.02;;;12.73;;
28762;SDS011;15918;51.270;6.522;2023-08-20T06:51:39;14.30;;;12.30;;
28762;SDS011;15918;51.270;6.522;2023-08-20T06:54:05;16.45;;;12.10;;
28762;SDS011;15918;51.270;6.522;2023-08-20T06:56:33;13.73;;;10.82;;
28762;SDS011;15918;51.270;6.522;2023-08-20T06:58:59;14.23;;;10.05;;
28762;SDS011;15918;51.270;6.522;2023-08-20T07:01:25;15.30;;;11.45;;
28762;SDS011;15918;51.270;6.522;2023-08-20T07:03:51;17.77;;;13.10;;
28762;SDS011;15918;51.270;6.522;2023-08-20T07:06:16;14.73;;;12.00;;
28762;SDS011;15918;51.270;6.522;2023-08-20T07:08:43;17.40;;;13.48;;
28762;SDS011;15918;51.270;6.522;2023-08-20T07:11:09;17.10;;;13.57;;
28762;SDS011;15918;51.270;6.522;2023-08-20T07:13:35;17.38;;;12.02;;
28762;SDS011;15918;51.270;6.522;2023-08-20T07:16:00;15.50;;;12.60;;
28762;SDS011;15918;51.270;6.522;2023-08-20T07:18:26;14.38;;;11.27;;
28762;SDS011;15918;51.270;6.522;2023-08-20T07:20:52;16.38;;;11.43;;
28762;SDS011;15918;51.270;6.522;2023-08-20T07:23:18;14.60;;;12.27;;
28762;SDS011;15918;51.270;6.522;2023-08-20T07:25:43;18.65;;;13.07;;
28762;SDS011;15918;51.270;6.522;2023-08-20T07:28:12;18.00;;;13.25;;
28762;SDS011;15918;51.270;6.522;2023-08-20T07:30:38;15.48;;;12.15;;
28762;SDS011;15918;51.270;6.522;2023-08-20T07:33:03;17.52;;;12.52;;
28762;SDS011;15918;51.270;6.522;2023-08-20T07:35:30;15.68;;;12.80;;
28762;SDS011;15918;51.270;6.522;2023-08-20T07:37:56;17.05;;;13.07;;
28762;SDS011;15918;51.270;6.522;2023-08-20T07:40:21;18.83;;;12.68;;
28762;SDS011;15918;51.270;6.522;2023-08-20T07:42:47;19.38;;;13.57;;
28762;SDS011;15918;51.270;6.522;2023-08-20T07:45:13;19.50;;;13.65;;
28762;SDS011;15918;51.270;6.522;2023-08-20T07:47:38;19.50;;;13.90;;
28762;SDS011;15918;51.270;6.522;2023-08-20T07:50:04;18.90;;;13.48;;
28762;SDS011;15918;51.270;6.522;2023-08-20T07:52:31;16.33;;;12.77;;
28762;SDS011;15918;51.270;6.522;2023-08-20T07:54:57;17.75;;;13.52;;
28762;SDS011;15918;51.270;6.522;2023-08-20T07:57:22;21.23;;;13.38;;
28762;SDS011;15918;51.270;6.522;2023-08-20T07:59:49;20.42;;;13.32;;
28762;SDS011;15918;51.270;6.522;2023-08-20T08:02:15;18.42;;;13.82;;
28762;SDS011;15918;51.270;6.522;2023-08-20T08:04:41;18.13;;;13.73;;
28762;SDS011;15918;51.270;6.522;2023-08-20T08:07:07;19.92;;;14.45;;
28762;SDS011;15918;51.270;6.522;2023-08-20T08:09:33;18.60;;;13.80;;
28762;SDS011;15918;51.270;6.522;2023-08-20T08:11:59;19.20;;;14.38;;
28762;SDS011;15918;51.270;6.522;2023-08-20T08:14:25;19.27;;;15.48;;
28762;SDS011;15918;51.270;6.522;2023-08-20T08:16:51;19.50;;;15.52;;
28762;SDS011;15918;51.270;6.522;2023-08-20T08:19:17;19.45;;;16.35;;
28762;SDS011;15918;51.270;6.522;2023-08-20T08:21:43;20.50;;;16.60;;
28762;SDS011;15918;51.270;6.522;2023-08-20T08:24:09;20.45;;;16.08;;
28762;SDS011;15918;51.270;6.522;2023-08-20T08:26:35;24.27;;;17.95;;
28762;SDS011;15918;51.270;6.522;2023-08-20T08:29:05;20.85;;;17.63;;
28762;SDS011;15918;51.270;6.522;2023-08-20T08:31:31;19.55;;;16.80;;
28762;SDS011;15918;51.270;6.522;2023-08-20T08:33:57;20.67;;;17.33;;
28762;SDS011;15918;51.270;6.522;2023-08-20T08:36:23;24.42;;;18.45;;
28762;SDS011;15918;51.270;6.522;2023-08-20T08:38:51;26.00;;;19.42;;
28762;SDS011;15918;51.270;6.522;2023-08-20T08:41:17;23.67;;;19.52;;
28762;SDS011;15918;51.270;6.522;2023-08-20T08:43:47;23.58;;;18.08;;
28762;SDS011;15918;51.270;6.522;2023-08-20T08:46:14;26.35;;;21.13;;
28762;SDS011;15918;51.270;6.522;2023-08-20T08:48:40;26.20;;;20.33;;
28762;SDS011;15918;51.270;6.522;2023-08-20T08:51:07;25.50;;;20.90;;
28762;SDS011;15918;51.270;6.522;2023-08-20T08:53:33;28.70;;;21.58;;
28762;SDS011;15918;51.270;6.522;2023-08-20T08:56:00;29.30;;;22.17;;
28762;SDS011;15918;51.270;6.522;2023-08-20T08:58:26;29.30;;;23.27;;
28762;SDS011;15918;51.270;6.522;2023-08-20T09:00:52;27.63;;;22.98;;
28762;SDS011;15918;51.270;6.522;2023-08-20T09:03:17;30.35;;;22.75;;
28762;SDS011;15918;51.270;6.522;2023-08-20T09:06:02;25.90;;;22.48;;
28762;SDS011;15918;51.270;6.522;2023-08-20T09:08:35;24.10;;;21.52;;
28762;SDS011;15918;51.270;6.522;2023-08-20T09:11:01;26.33;;;20.77;;
28762;SDS011;15918;51.270;6.522;2023-08-20T09:13:37;24.90;;;20.52;;
28762;SDS011;15918;51.270;6.522;2023-08-20T09:16:05;28.88;;;22.00;;
28762;SDS011;15918;51.270;6.522;2023-08-20T09:18:32;24.05;;;20.30;;
28762;SDS011;15918;51.270;6.522;2023-08-20T09:21:10;26.00;;;20.35;;
28762;SDS011;15918;51.270;6.522;2023-08-20T09:23:37;27.17;;;20.10;;
28762;SDS011;15918;51.270;6.522;2023-08-20T09:26:03;22.45;;;20.08;;
28762;SDS011;15918;51.270;6.522;2023-08-20T09:28:54;24.05;;;19.80;;
28762;SDS011;15918;51.270;6.522;2023-08-20T09:31:19;24.25;;;18.15;;
28762;SDS011;15918;51.270;6.522;2023-08-20T09:33:48;23.20;;;18.42;;
28762;SDS011;15918;51.270;6.522;2023-08-20T09:36:18;26.88;;;20.35;;
28762;SDS011;15918;51.270;6.522;2023-08-20T09:38:44;22.20;;;18.25;;
28762;SDS011;15918;51.270;6.522;2023-08-20T09:41:09;25.35;;;18.08;;
28762;SDS011;15918;51.270;6.522;2023-08-20T09:43:40;20.40;;;18.08;;
28762;SDS011;15918;51.270;6.522;2023-08-20T09:46:08;20.58;;;17.13;;
28762;SDS011;15918;51.270;6.522;2023-08-20T09:48:38;19.58;;;16.92;;
28762;SDS011;15918;51.270;6.522;2023-08-20T09:51:07;20.98;;;15.95;;
28762;SDS011;15918;51.270;6.522;2023-08-20T09:56:46;19.58;;;14.30;;
28762;SDS011;15918;51.270;6.522;2023-08-20T09:59:18;18.10;;;14.13;;
28762;SDS011;15918;51.270;6.522;2023-08-20T10:01:44;17.30;;;14.00;;
28762;SDS011;15918;51.270;6.522;2023-08-20T10:04:12;17.63;;;14.73;;
28762;SDS011;15918;51.270;6.522;2023-08-20T10:06:39;15.23;;;13.50;;
28762;SDS011;15918;51.270;6.522;2023-08-20T10:09:06;16.45;;;13.52;;
28762;SDS011;15918;51.270;6.522;2023-08-20T10:11:32;18.27;;;13.30;;
28762;SDS011;15918;51.270;6.522;2023-08-20T10:13:57;16.67;;;13.52;;
28762;SDS011;15918;51.270;6.522;2023-08-20T10:16:24;17.33;;;13.18;;
28762;SDS011;15918;51.270;6.522;2023-08-20T10:18:52;19.63;;;14.43;;
28762;SDS011;15918;51.270;6.522;2023-08-20T10:21:23;17.25;;;13.80;;
28762;SDS011;15918;51.270;6.522;2023-08-20T10:23:50;15.30;;;13.23;;
28762;SDS011;15918;51.270;6.522;2023-08-20T10:26:15;16.60;;;14.50;;
28762;SDS011;15918;51.270;6.522;2023-08-20T10:28:41;15.95;;;13.70;;
28762;SDS011;15918;51.270;6.522;2023-08-20T10:31:08;15.13;;;13.52;;
28762;SDS011;15918;51.270;6.522;2023-08-20T10:33:37;15.18;;;12.52;;
28762;SDS011;15918;51.270;6.522;2023-08-20T10:36:06;16.58;;;14.80;;
28762;SDS011;15918;51.270;6.522;2023-08-20T10:38:39;16.00;;;13.43;;
28762;SDS011;15918;51.270;6.522;2023-08-20T10:41:08;14.30;;;12.80;;
28762;SDS011;15918;51.270;6.522;2023-08-20T10:43:38;13.85;;;12.52;;
28762;SDS011;15918;51.270;6.522;2023-08-20T10:46:18;16.85;;;14.40;;
28762;SDS011;15918;51.270;6.522;2023-08-20T10:51:17;17.77;;;14.20;;
28762;SDS011;15918;51.270;6.522;2023-08-20T10:53:49;14.13;;;12.68;;
28762;SDS011;15918;51.270;6.522;2023-08-20T10:56:47;14.65;;;13.02;;
28762;SDS011;15918;51.270;6.522;2023-08-20T10:59:23;14.55;;;13.00;;
28762;SDS011;15918;51.270;6.522;2023-08-20T11:01:55;13.85;;;12.48;;
28762;SDS011;15918;51.270;6.522;2023-08-20T11:04:23;15.38;;;13.43;;
28762;SDS011;15918;51.270;6.522;2023-08-20T11:06:59;14.85;;;13.35;;
28762;SDS011;15918;51.270;6.522;2023-08-20T11:09:26;14.98;;;13.50;;
28762;SDS011;15918;51.270;6.522;2023-08-20T11:11:53;16.30;;;12.60;;
28762;SDS011;15918;51.270;6.522;2023-08-20T11:14:19;14.95;;;11.73;;
28762;SDS011;15918;51.270;6.522;2023-08-20T11:16:45;12.18;;;10.75;;
28762;SDS011;15918;51.270;6.522;2023-08-20T11:19:18;12.88;;;11.57;;
28762;SDS011;15918;51.270;6.522;2023-08-20T11:21:45;12.20;;;11.10;;
28762;SDS011;15918;51.270;6.522;2023-08-20T11:24:11;12.43;;;10.93;;
28762;SDS011;15918;51.270;6.522;2023-08-20T11:26:41;13.40;;;12.00;;
28762;SDS011;15918;51.270;6.522;2023-08-20T11:31:33;11.85;;;10.65;;
28762;SDS011;15918;51.270;6.522;2023-08-20T11:34:02;11.35;;;10.15;;
28762;SDS011;15918;51.270;6.522;2023-08-20T11:36:28;11.32;;;10.07;;
28762;SDS011;15918;51.270;6.522;2023-08-20T11:38:54;11.23;;;9.85;;
28762;SDS011;15918;51.270;6.522;2023-08-20T11:41:20;13.23;;;9.98;;
28762;SDS011;15918;51.270;6.522;2023-08-20T11:43:47;12.80;;;10.00;;
28762;SDS011;15918;51.270;6.522;2023-08-20T11:46:13;14.10;;;10.65;;
28762;SDS011;15918;51.270;6.522;2023-08-20T11:54:06;14.88;;;10.45;;
28762;SDS011;15918;51.270;6.522;2023-08-20T11:56:33;15.07;;;10.27;;
28762;SDS011;15918;51.270;6.522;2023-08-20T11:59:00;15.10;;;9.63;;
28762;SDS011;15918;51.270;6.522;2023-08-20T12:01:33;14.80;;;9.88;;
28762;SDS011;15918;51.270;6.522;2023-08-20T12:04:06;14.52;;;10.13;;
28762;SDS011;15918;51.270;6.522;2023-08-20T12:06:33;13.05;;;9.95;;
28762;SDS011;15918;51.270;6.522;2023-08-20T12:09:00;11.98;;;9.88;;
28762;SDS011;15918;51.270;6.522;2023-08-20T12:11:30;12.88;;;9.57;;
28762;SDS011;15918;51.270;6.522;2023-08-20T12:13:56;11.00;;;9.10;;
28762;SDS011;15918;51.270;6.522;2023-08-20T12:16:22;11.80;;;9.32;;
28762;SDS011;15918;51.270;6.522;2023-08-20T12:18:49;12.27;;;8.38;;
28762;SDS011;15918;51.270;6.522;2023-08-20T12:21:15;14.70;;;8.95;;
28762;SDS011;15918;51.270;6.522;2023-08-20T12:23:40;10.70;;;8.65;;
28762;SDS011;15918;51.270;6.522;2023-08-20T12:26:06;13.48;;;8.40;;
28762;SDS011;15918;51.270;6.522;2023-08-20T12:28:32;15.18;;;7.20;;
28762;SDS011;15918;51.270;6.522;2023-08-20T12:30:58;13.43;;;7.55;;
28762;SDS011;15918;51.270;6.522;2023-08-20T12:33:24;10.45;;;7.85;;
28762;SDS011;15918;51.270;6.522;2023-08-20T12:35:50;9.05;;;7.28;;
28762;SDS011;15918;51.270;6.522;2023-08-20T12:38:18;9.05;;;6.88;;
28762;SDS011;15918;51.270;6.522;2023-08-20T12:40:44;11.57;;;6.65;;
28762;SDS011;15918;51.270;6.522;2023-08-20T12:43:10;11.85;;;7.15;;
28762;SDS011;15918;51.270;6.522;2023-08-20T12:45:35;11.25;;;7.47;;
28762;SDS011;15918;51.270;6.522;2023-08-20T12:48:01;12.60;;;7.25;;
28762;SDS011;15918;51.270;6.522;2023-08-20T12:50:28;9.45;;;7.13;;
28762;SDS011;15918;51.270;6.522;2023-08-20T12:52:54;9.70;;;6.47;;
28762;SDS011;15918;51.270;6.522;2023-08-20T12:55:19;10.07;;;7.03;;
28762;SDS011;15918;51.270;6.522;2023-08-20T12:57:55;9.60;;;7.00;;
28762;SDS011;15918;51.270;6.522;2023-08-20T13:00:30;7.70;;;6.03;;
28762;SDS011;15918;51.270;6.522;2023-08-20T13:02:58;12.25;;;6.80;;
28762;SDS011;15918;51.270;6.522;2023-08-20T13:05:24;11.20;;;6.50;;
28762;SDS011;15918;51.270;6.522;2023-08-20T13:07:51;10.85;;;6.43;;
28762;SDS011;15918;51.270;6.522;2023-08-20T13:10:17;9.25;;;5.97;;
28762;SDS011;15918;51.270;6.522;2023-08-20T13:12:53;9.32;;;5.93;;
28762;SDS011;15918;51.270;6.522;2023-08-20T13:15:20;8.63;;;5.70;;
28762;SDS011;15918;51.270;6.522;2023-08-20T13:17:47;9.10;;;5.75;;
28762;SDS011;15918;51.270;6.522;2023-08-20T13:20:14;10.95;;;5.45;;
28762;SDS011;15918;51.270;6.522;2023-08-20T13:22:40;9.40;;;5.18;;
28762;SDS011;15918;51.270;6.522;2023-08-20T13:25:06;7.55;;;5.07;;
28762;SDS011;15918;51.270;6.522;2023-08-20T13:27:32;10.10;;;5.18;;
28762;SDS011;15918;51.270;6.522;2023-08-20T13:29:58;6.57;;;4.45;;
28762;SDS011;15918;51.270;6.522;2023-08-20T13:32:23;7.00;;;4.47;;
28762;SDS011;15918;51.270;6.522;2023-08-20T13:34:49;9.07;;;4.88;;
28762;SDS011;15918;51.270;6.522;2023-08-20T13:37:15;9.38;;;4.55;;
28762;SDS011;15918;51.270;6.522;2023-08-20T13:39:41;8.75;;;4.82;;
28762;SDS011;15918;51.270;6.522;2023-08-20T13:42:06;6.05;;;4.57;;
28762;SDS011;15918;51.270;6.522;2023-08-20T13:44:32;8.07;;;4.25;;
28762;SDS011;15918;51.270;6.522;2023-08-20T13:46:58;6.72;;;4.57;;
28762;SDS011;15918;51.270;6.522;2023-08-20T13:49:24;7.53;;;4.45;;
28762;SDS011;15918;51.270;6.522;2023-08-20T13:51:50;7.85;;;4.65;;
28762;SDS011;15918;51.270;6.522;2023-08-20T13:54:15;8.18;;;4.68;;
28762;SDS011;15918;51.270;6.522;2023-08-20T13:56:41;9.00;;;4.90;;
28762;SDS011;15918;51.270;6.522;2023-08-20T13:59:08;5.63;;;4.00;;
28762;SDS011;15918;51.270;6.522;2023-08-20T14:01:34;7.70;;;4.07;;
28762;SDS011;15918;51.270;6.522;2023-08-20T14:04:00;8.00;;;4.78;;
28762;SDS011;15918;51.270;6.522;2023-08-20T14:06:25;4.63;;;3.92;;
28762;SDS011;15918;51.270;6.522;2023-08-20T14:08:51;9.10;;;5.10;;
28762;SDS011;15918;51.270;6.522;2023-08-20T14:11:16;8.95;;;4.85;;
28762;SDS011;15918;51.270;6.522;2023-08-20T14:13:42;5.38;;;3.92;;
28762;SDS011;15918;51.270;6.522;2023-08-20T14:16:07;8.85;;;4.50;;
28762;SDS011;15918;51.270;6.522;2023-08-20T14:18:33;10.30;;;4.68;;
28762;SDS011;15918;51.270;6.522;2023-08-20T14:20:59;5.45;;;4.00;;
28762;SDS011;15918;51.270;6.522;2023-08-20T14:23:24;6.13;;;3.88;;
28762;SDS011;15918;51.270;6.522;2023-08-20T14:25:50;6.18;;;4.05;;
28762;SDS011;15918;51.270;6.522;2023-08-20T14:28:15;9.63;;;4.50;;
28762;SDS011;15918;51.270;6.522;2023-08-20T14:30:41;6.75;;;4.45;;
28762;SDS011;15918;51.270;6.522;2023-08-20T14:33:06;7.05;;;4.35;;
28762;SDS011;15918;51.270;6.522;2023-08-20T14:35:32;9.35;;;4.50;;
28762;SDS011;15918;51.270;6.522;2023-08-20T14:37:58;6.88;;;4.30;;
28762;SDS011;15918;51.270;6.522;2023-08-20T14:40:23;6.85;;;3.67;;
28762;SDS011;15918;51.270;6.522;2023-08-20T14:42:49;6.72;;;4.47;;
28762;SDS011;15918;51.270;6.522;2023-08-20T14:45:15;9.82;;;5.00;;
28762;SDS011;15918;51.270;6.522;2023-08-20T14:47:41;6.47;;;4.10;;
28762;SDS011;15918;51.270;6.522;2023-08-20T14:50:07;7.90;;;4.47;;